Ns Point — A8LV3 — position and weather

sailwx.info

Track history (hours):
 
Tides and Currents Weather Stations Pressure Air Temp Water Temp Dewpoint Dewpoint Depression Visibility Wind Speed Wind Dir Waves Ship Positions

Ns Point

Last reported at 2018-Jun-17 15:13 UTC. Time now 2018-Jun-17 22:11 UTC.
Position N 37°20' E 015°41'.

Length 176 m; draft 7 m.

Type: Ship. MMSI: 636013276.

Date/timePositionNaut miles runAvg speedWind from/ knotsBaromVisibWave heightAir tempDewpointWater temp
2018-Jun-17 15:13N 37°20' E 015°41'63612.9
2018-Jun-15 13:53N 34°16' E 028°11'513.4
2018-Jun-15 13:30N 34°16' E 028°18'1013.4
2018-Jun-15 12:44N 34°16' E 028°30'413.5
2018-Jun-15 12:26N 34°16' E 028°35'613.4
2018-Jun-15 12:00N 34°16' E 028°42'713.2
2018-Jun-15 11:29N 34°15' E 028°50'613.0
2018-Jun-15 11:00N 34°15' E 028°58'12413.2
2018-Jun-15 01:39N 34°13' E 031°28'213.3
2018-Jun-15 01:30N 34°13' E 031°30'  
2018-Jun-09 00:36N 33°34' E 034°29'412.6
2018-Jun-09 00:19N 33°34' E 034°25'412.5
2018-Jun-09 00:00N 33°35' E 034°20'612.6
2018-Jun-08 23:30N 33°35' E 034°12'1912.5
2018-Jun-08 22:01N 33°37' E 033°50'312.6
2018-Jun-08 21:46N 33°37' E 033°46'312.6
2018-Jun-08 21:30N 33°37' E 033°42'612.7
2018-Jun-08 21:00N 33°38' E 033°35'812.7
2018-Jun-08 20:22N 33°39' E 033°25'2112.2
2018-Jun-08 18:38N 33°41' E 032°60'211.9
2018-Jun-08 18:30N 33°41' E 032°58'2312.2
2018-Jun-08 16:36N 33°43' E 032°30'312.4
2018-Jun-08 16:22N 33°43' E 032°27'3412.3
2018-Jun-08 13:37N 33°47' E 031°46'512.5
2018-Jun-08 13:15N 33°47' E 031°41'312.5
2018-Jun-08 13:00N 33°47' E 031°37'  
Track history (hours):
 
Tides and Currents Weather Stations Pressure Air Temp Water Temp Dewpoint Dewpoint Depression Visibility Wind Speed Wind Dir Waves Ship Positions

Ns Point

Last reported at 2018-Jun-17 15:13 UTC. Time now 2018-Jun-17 22:11 UTC.
Position N 37°20' E 015°41'.

Length 176 m; draft 7 m.

Type: Ship. MMSI: 636013276.

Date/timePositionNaut miles runAvg speedWind from/ knotsBaromVisibWave heightAir tempDewpointWater temp
2018-Jun-17 15:13N 37°20' E 015°41'63612.9
2018-Jun-15 13:53N 34°16' E 028°11'513.4
2018-Jun-15 13:30N 34°16' E 028°18'1013.4
2018-Jun-15 12:44N 34°16' E 028°30'413.5
2018-Jun-15 12:26N 34°16' E 028°35'613.4
2018-Jun-15 12:00N 34°16' E 028°42'713.2
2018-Jun-15 11:29N 34°15' E 028°50'613.0
2018-Jun-15 11:00N 34°15' E 028°58'12413.2
2018-Jun-15 01:39N 34°13' E 031°28'213.3
2018-Jun-15 01:30N 34°13' E 031°30'  
2018-Jun-09 00:36N 33°34' E 034°29'412.6
2018-Jun-09 00:19N 33°34' E 034°25'412.5
2018-Jun-09 00:00N 33°35' E 034°20'612.6
2018-Jun-08 23:30N 33°35' E 034°12'1912.5
2018-Jun-08 22:01N 33°37' E 033°50'312.6
2018-Jun-08 21:46N 33°37' E 033°46'312.6
2018-Jun-08 21:30N 33°37' E 033°42'612.7
2018-Jun-08 21:00N 33°38' E 033°35'812.7
2018-Jun-08 20:22N 33°39' E 033°25'2112.2
2018-Jun-08 18:38N 33°41' E 032°60'211.9
2018-Jun-08 18:30N 33°41' E 032°58'2312.2
2018-Jun-08 16:36N 33°43' E 032°30'312.4
2018-Jun-08 16:22N 33°43' E 032°27'3412.3
2018-Jun-08 13:37N 33°47' E 031°46'512.5
2018-Jun-08 13:15N 33°47' E 031°41'312.5
2018-Jun-08 13:00N 33°47' E 031°37'  

Dump ship's entire track history